sensor_id;sensor_type;location;lat;lon;timestamp;pressure;altitude;pressure_sealevel;temperature;humidity
55301;BME280;58302;51.446;-2.000;2024-01-15T00:01:27;101133.81;;;2.27;100.00
55301;BME280;58302;51.446;-2.000;2024-01-15T00:03:53;101131.69;;;2.22;100.00
55301;BME280;58302;51.446;-2.000;2024-01-15T00:06:19;101128.78;;;2.17;100.00
55301;BME280;58302;51.446;-2.000;2024-01-15T00:08:46;101141.56;;;2.15;100.00
55301;BME280;58302;51.446;-2.000;2024-01-15T00:11:11;101140.72;;;2.15;100.00
55301;BME280;58302;51.446;-2.000;2024-01-15T00:13:39;101141.09;;;2.11;100.00
55301;BME280;58302;51.446;-2.000;2024-01-15T00:16:05;101148.94;;;2.13;100.00
55301;BME280;58302;51.446;-2.000;2024-01-15T00:18:32;101145.84;;;2.09;100.00
55301;BME280;58302;51.446;-2.000;2024-01-15T00:20:58;101133.19;;;2.03;100.00
55301;BME280;58302;51.446;-2.000;2024-01-15T00:23:25;101132.94;;;1.98;100.00
55301;BME280;58302;51.446;-2.000;2024-01-15T00:25:51;101131.50;;;2.02;100.00
55301;BME280;58302;51.446;-2.000;2024-01-15T00:28:18;101125.97;;;2.04;100.00
55301;BME280;58302;51.446;-2.000;2024-01-15T00:30:44;101133.81;;;2.05;100.00
55301;BME280;58302;51.446;-2.000;2024-01-15T00:33:10;101123.94;;;2.06;100.00
55301;BME280;58302;51.446;-2.000;2024-01-15T00:35:38;101132.16;;;2.04;100.00
55301;BME280;58302;51.446;-2.000;2024-01-15T00:38:06;101119.72;;;1.97;100.00
55301;BME280;58302;51.446;-2.000;2024-01-15T00:40:34;101122.38;;;1.97;100.00
55301;BME280;58302;51.446;-2.000;2024-01-15T00:42:59;101122.84;;;2.00;100.00
55301;BME280;58302;51.446;-2.000;2024-01-15T00:45:31;101115.84;;;1.99;100.00
55301;BME280;58302;51.446;-2.000;2024-01-15T00:47:57;101114.19;;;1.98;100.00
55301;BME280;58302;51.446;-2.000;2024-01-15T00:50:31;101107.34;;;1.96;100.00
55301;BME280;58302;51.446;-2.000;2024-01-15T00:53:04;101112.44;;;1.91;100.00
55301;BME280;58302;51.446;-2.000;2024-01-15T00:55:31;101112.44;;;1.91;100.00
55301;BME280;58302;51.446;-2.000;2024-01-15T00:57:58;101113.47;;;1.90;100.00
55301;BME280;58302;51.446;-2.000;2024-01-15T01:00:29;101113.84;;;1.87;100.00
55301;BME280;58302;51.446;-2.000;2024-01-15T01:02:56;101111.56;;;1.83;100.00
55301;BME280;58302;51.446;-2.000;2024-01-15T01:05:24;101116.09;;;1.83;100.00
55301;BME280;58302;51.446;-2.000;2024-01-15T01:07:50;101113.84;;;1.87;100.00
55301;BME280;58302;51.446;-2.000;2024-01-15T01:10:16;101111.63;;;1.90;100.00
55301;BME280;58302;51.446;-2.000;2024-01-15T01:12:43;101112.84;;;1.88;100.00
55301;BME280;58302;51.446;-2.000;2024-01-15T01:15:11;101105.81;;;1.87;100.00
55301;BME280;58302;51.446;-2.000;2024-01-15T01:17:38;101101.28;;;1.87;100.00
55301;BME280;58302;51.446;-2.000;2024-01-15T01:20:06;101106.47;;;1.89;100.00
55301;BME280;58302;51.446;-2.000;2024-01-15T01:22:35;101096.16;;;1.92;100.00
55301;BME280;58302;51.446;-2.000;2024-01-15T01:25:01;101099.03;;;1.91;100.00
55301;BME280;58302;51.446;-2.000;2024-01-15T01:27:27;101110.41;;;1.93;100.00
55301;BME280;58302;51.446;-2.000;2024-01-15T01:29:53;101097.38;;;1.90;100.00
55301;BME280;58302;51.446;-2.000;2024-01-15T01:32:19;101099.63;;;1.86;100.00
55301;BME280;58302;51.446;-2.000;2024-01-15T01:34:47;101095.28;;;1.85;100.00
55301;BME280;58302;51.446;-2.000;2024-01-15T01:37:14;101101.28;;;1.87;100.00
55301;BME280;58302;51.446;-2.000;2024-01-15T01:39:41;101092.59;;;1.85;100.00
55301;BME280;58302;51.446;-2.000;2024-01-15T01:42:08;101090.13;;;1.83;100.00
55301;BME280;58302;51.446;-2.000;2024-01-15T01:44:34;101079.78;;;1.80;100.00
55301;BME280;58302;51.446;-2.000;2024-01-15T01:47:01;101073.41;;;1.81;100.00
55301;BME280;58302;51.446;-2.000;2024-01-15T01:49:29;101070.75;;;1.81;100.00
55301;BME280;58302;51.446;-2.000;2024-01-15T01:52:00;101075.00;;;1.76;100.00
55301;BME280;58302;51.446;-2.000;2024-01-15T01:54:32;101071.09;;;1.78;100.00
55301;BME280;58302;51.446;-2.000;2024-01-15T01:57:02;101072.97;;;1.78;100.00
55301;BME280;58302;51.446;-2.000;2024-01-15T01:59:28;101070.28;;;1.78;100.00
55301;BME280;58302;51.446;-2.000;2024-01-15T02:01:56;101065.75;;;1.78;100.00
55301;BME280;58302;51.446;-2.000;2024-01-15T02:04:27;101063.06;;;1.78;100.00
55301;BME280;58302;51.446;-2.000;2024-01-15T02:06:56;101063.44;;;1.75;100.00
55301;BME280;58302;51.446;-2.000;2024-01-15T02:09:24;101056.44;;;1.74;100.00
55301;BME280;58302;51.446;-2.000;2024-01-15T02:11:51;101061.16;;;1.72;100.00
55301;BME280;58302;51.446;-2.000;2024-01-15T02:14:19;101054.91;;;1.65;100.00
55301;BME280;58302;51.446;-2.000;2024-01-15T02:16:46;101054.25;;;1.63;100.00
55301;BME280;58302;51.446;-2.000;2024-01-15T02:19:17;101049.94;;;1.62;100.00
55301;BME280;58302;51.446;-2.000;2024-01-15T02:21:43;101049.88;;;1.55;100.00
55301;BME280;58302;51.446;-2.000;2024-01-15T02:24:09;101042.88;;;1.54;100.00
55301;BME280;58302;51.446;-2.000;2024-01-15T02:26:36;101033.81;;;1.55;100.00
55301;BME280;58302;51.446;-2.000;2024-01-15T02:29:05;101041.91;;;1.62;100.00
55301;BME280;58302;51.446;-2.000;2024-01-15T02:31:33;101029.59;;;1.68;100.00
55301;BME280;58302;51.446;-2.000;2024-01-15T02:34:03;101026.06;;;1.67;100.00
55301;BME280;58302;51.446;-2.000;2024-01-15T02:36:36;101032.25;;;1.68;100.00
55301;BME280;58302;51.446;-2.000;2024-01-15T02:39:02;101021.09;;;1.64;100.00
55301;BME280;58302;51.446;-2.000;2024-01-15T02:41:29;101018.81;;;1.61;100.00
55301;BME280;58302;51.446;-2.000;2024-01-15T02:43:55;101009.94;;;1.61;100.00
55301;BME280;58302;51.446;-2.000;2024-01-15T02:46:21;101007.22;;;1.54;100.00
55301;BME280;58302;51.446;-2.000;2024-01-15T02:48:46;101008.56;;;1.43;100.00
55301;BME280;58302;51.446;-2.000;2024-01-15T02:51:12;101011.81;;;1.39;100.00
55301;BME280;58302;51.446;-2.000;2024-01-15T02:53:38;101011.34;;;1.35;100.00
55301;BME280;58302;51.446;-2.000;2024-01-15T02:56:07;101005.38;;;1.33;100.00
55301;BME280;58302;51.446;-2.000;2024-01-15T02:58:34;100997.59;;;1.38;100.00
55301;BME280;58302;51.446;-2.000;2024-01-15T03:01:00;100993.31;;;1.44;100.00
55301;BME280;58302;51.446;-2.000;2024-01-15T03:03:27;100984.69;;;1.48;100.00
55301;BME280;58302;51.446;-2.000;2024-01-15T03:05:53;100982.88;;;1.49;100.00
55301;BME280;58302;51.446;-2.000;2024-01-15T03:08:20;100982.41;;;1.45;100.00
55301;BME280;58302;51.446;-2.000;2024-01-15T03:10:48;100980.50;;;1.39;100.00
55301;BME280;58302;51.446;-2.000;2024-01-15T03:13:15;100979.41;;;1.34;100.00
55301;BME280;58302;51.446;-2.000;2024-01-15T03:15:43;100963.47;;;1.25;100.00
55301;BME280;58302;51.446;-2.000;2024-01-15T03:18:11;100969.03;;;1.24;100.00
55301;BME280;58302;51.446;-2.000;2024-01-15T03:20:39;100961.81;;;1.24;100.00
55301;BME280;58302;51.446;-2.000;2024-01-15T03:23:05;100959.41;;;1.29;100.00
55301;BME280;58302;51.446;-2.000;2024-01-15T03:25:32;100946.50;;;1.40;100.00
55301;BME280;58302;51.446;-2.000;2024-01-15T03:27:58;100951.53;;;1.49;100.00
55301;BME280;58302;51.446;-2.000;2024-01-15T03:30:30;100954.66;;;1.53;100.00
55301;BME280;58302;51.446;-2.000;2024-01-15T03:33:05;100938.19;;;1.56;100.00
55301;BME280;58302;51.446;-2.000;2024-01-15T03:35:32;100951.03;;;1.61;100.00
55301;BME280;58302;51.446;-2.000;2024-01-15T03:37:59;100946.28;;;1.63;100.00
55301;BME280;58302;51.446;-2.000;2024-01-15T03:40:25;100950.44;;;1.65;100.00
55301;BME280;58302;51.446;-2.000;2024-01-15T03:42:53;100954.38;;;1.69;100.00
55301;BME280;58302;51.446;-2.000;2024-01-15T03:45:20;100962.22;;;1.71;100.00
55301;BME280;58302;51.446;-2.000;2024-01-15T03:47:48;100958.06;;;1.68;100.00
55301;BME280;58302;51.446;-2.000;2024-01-15T03:50:15;100968.00;;;1.74;100.00
55301;BME280;58302;51.446;-2.000;2024-01-15T03:52:41;100967.84;;;1.76;100.00
55301;BME280;58302;51.446;-2.000;2024-01-15T03:55:07;100967.84;;;1.76;100.00
55301;BME280;58302;51.446;-2.000;2024-01-15T03:57:37;100969.28;;;1.78;100.00
55301;BME280;58302;51.446;-2.000;2024-01-15T04:00:06;100976.28;;;1.79;100.00
55301;BME280;58302;51.446;-2.000;2024-01-15T04:02:34;100980.00;;;1.78;100.00
55301;BME280;58302;51.446;-2.000;2024-01-15T04:05:01;100978.59;;;1.82;100.00
55301;BME280;58302;51.446;-2.000;2024-01-15T04:07:27;100976.94;;;1.81;100.00
55301;BME280;58302;51.446;-2.000;2024-01-15T04:09:55;100979.22;;;1.84;100.00
55301;BME280;58302;51.446;-2.000;2024-01-15T04:12:23;100982.09;;;1.83;100.00
55301;BME280;58302;51.446;-2.000;2024-01-15T04:14:53;100985.97;;;1.80;100.00
55301;BME280;58302;51.446;-2.000;2024-01-15T04:17:27;100986.38;;;1.77;100.00
55301;BME280;58302;51.446;-2.000;2024-01-15T04:19:53;100992.78;;;1.76;100.00
55301;BME280;58302;51.446;-2.000;2024-01-15T04:22:19;100989.84;;;1.71;100.00
55301;BME280;58302;51.446;-2.000;2024-01-15T04:24:45;101001.97;;;1.67;100.00
55301;BME280;58302;51.446;-2.000;2024-01-15T04:27:13;100994.69;;;1.61;100.00
55301;BME280;58302;51.446;-2.000;2024-01-15T04:29:39;100999.75;;;1.49;100.00
55301;BME280;58302;51.446;-2.000;2024-01-15T04:32:17;100990.38;;;1.39;100.00
55301;BME280;58302;51.446;-2.000;2024-01-15T04:34:47;100983.44;;;1.23;100.00
55301;BME280;58302;51.446;-2.000;2024-01-15T04:37:13;100978.88;;;1.02;100.00
55301;BME280;58302;51.446;-2.000;2024-01-15T04:39:48;100977.28;;;0.86;100.00
55301;BME280;58302;51.446;-2.000;2024-01-15T04:42:28;100969.09;;;0.73;100.00
55301;BME280;58302;51.446;-2.000;2024-01-15T04:44:55;100975.09;;;0.60;100.00
55301;BME280;58302;51.446;-2.000;2024-01-15T04:47:22;100963.22;;;0.48;100.00
55301;BME280;58302;51.446;-2.000;2024-01-15T04:49:48;100956.06;;;0.34;100.00
55301;BME280;58302;51.446;-2.000;2024-01-15T04:52:16;100942.50;;;0.20;100.00
55301;BME280;58302;51.446;-2.000;2024-01-15T04:54:42;100938.38;;;0.03;100.00
55301;BME280;58302;51.446;-2.000;2024-01-15T04:57:11;100924.94;;;-0.04;100.00
55301;BME280;58302;51.446;-2.000;2024-01-15T04:59:37;100917.28;;;-0.07;100.00
55301;BME280;58302;51.446;-2.000;2024-01-15T05:02:03;100907.13;;;-0.11;100.00
55301;BME280;58302;51.446;-2.000;2024-01-15T05:04:31;100910.38;;;-0.16;100.00
55301;BME280;58302;51.446;-2.000;2024-01-15T05:07:00;100898.88;;;-0.16;100.00
55301;BME280;58302;51.446;-2.000;2024-01-15T05:09:26;100892.59;;;-0.23;100.00
55301;BME280;58302;51.446;-2.000;2024-01-15T05:11:52;100884.84;;;-0.33;100.00
55301;BME280;58302;51.446;-2.000;2024-01-15T05:14:19;100877.94;;;-0.42;100.00
55301;BME280;58302;51.446;-2.000;2024-01-15T05:16:48;100866.34;;;-0.49;100.00
55301;BME280;58302;51.446;-2.000;2024-01-15T05:19:16;100870.09;;;-0.59;100.00
55301;BME280;58302;51.446;-2.000;2024-01-15T05:21:43;100863.91;;;-0.74;100.00
55301;BME280;58302;51.446;-2.000;2024-01-15T05:24:17;100863.88;;;-0.89;100.00
55301;BME280;58302;51.446;-2.000;2024-01-15T05:26:44;100860.44;;;-0.97;100.00
55301;BME280;58302;51.446;-2.000;2024-01-15T05:29:10;100863.31;;;-0.99;100.00
55301;BME280;58302;51.446;-2.000;2024-01-15T05:31:37;100850.31;;;-1.02;100.00
55301;BME280;58302;51.446;-2.000;2024-01-15T05:34:05;100847.56;;;-0.94;100.00
55301;BME280;58302;51.446;-2.000;2024-01-15T05:36:31;100848.78;;;-0.96;100.00
55301;BME280;58302;51.446;-2.000;2024-01-15T05:38:57;100843.78;;;-0.99;100.00
55301;BME280;58302;51.446;-2.000;2024-01-15T05:41:24;100844.34;;;-1.04;100.00
55301;BME280;58302;51.446;-2.000;2024-01-15T05:43:50;100841.25;;;-1.16;100.00
55301;BME280;58302;51.446;-2.000;2024-01-15T05:46:16;100836.28;;;-1.19;100.00
55301;BME280;58302;51.446;-2.000;2024-01-15T05:48:43;100843.69;;;-1.29;100.00
55301;BME280;58302;51.446;-2.000;2024-01-15T05:51:10;100837.25;;;-1.35;100.00
55301;BME280;58302;51.446;-2.000;2024-01-15T05:53:37;100830.25;;;-1.36;100.00
55301;BME280;58302;51.446;-2.000;2024-01-15T05:56:14;100834.09;;;-1.38;100.00
55301;BME280;58302;51.446;-2.000;2024-01-15T05:58:44;100821.84;;;-1.47;100.00
55301;BME280;58302;51.446;-2.000;2024-01-15T06:01:10;100828.03;;;-1.55;100.00
55301;BME280;58302;51.446;-2.000;2024-01-15T06:03:37;100827.44;;;-1.65;100.00
55301;BME280;58302;51.446;-2.000;2024-01-15T06:06:04;100830.16;;;-1.73;100.00
55301;BME280;58302;51.446;-2.000;2024-01-15T06:08:30;100828.81;;;-1.69;100.00
55301;BME280;58302;51.446;-2.000;2024-01-15T06:11:02;100822.00;;;-1.72;100.00
55301;BME280;58302;51.446;-2.000;2024-01-15T06:13:28;100828.84;;;-1.77;100.00
55301;BME280;58302;51.446;-2.000;2024-01-15T06:15:55;100827.19;;;-1.78;100.00
55301;BME280;58302;51.446;-2.000;2024-01-15T06:18:22;100824.88;;;-1.81;100.00
55301;BME280;58302;51.446;-2.000;2024-01-15T06:20:55;100816.94;;;-1.90;100.00
55301;BME280;58302;51.446;-2.000;2024-01-15T06:23:22;100816.03;;;-2.05;100.00
55301;BME280;58302;51.446;-2.000;2024-01-15T06:25:49;100823.22;;;-2.14;100.00
55301;BME280;58302;51.446;-2.000;2024-01-15T06:28:15;100820.72;;;-2.15;100.00
55301;BME280;58302;51.446;-2.000;2024-01-15T06:30:41;100800.31;;;-2.31;100.00
55301;BME280;58302;51.446;-2.000;2024-01-15T06:33:09;100803.91;;;-2.47;100.00
55301;BME280;58302;51.446;-2.000;2024-01-15T06:35:41;100806.19;;;-2.44;100.00
55301;BME280;58302;51.446;-2.000;2024-01-15T06:38:09;100805.88;;;-2.49;100.00
55301;BME280;58302;51.446;-2.000;2024-01-15T06:40:35;100800.09;;;-2.52;100.00
55301;BME280;58302;51.446;-2.000;2024-01-15T06:43:01;100798.72;;;-2.48;100.00
55301;BME280;58302;51.446;-2.000;2024-01-15T06:45:29;100789.78;;;-2.47;100.00
55301;BME280;58302;51.446;-2.000;2024-01-15T06:47:56;100784.97;;;-2.52;100.00
55301;BME280;58302;51.446;-2.000;2024-01-15T06:50:23;100785.59;;;-2.50;100.00
55301;BME280;58302;51.446;-2.000;2024-01-15T06:52:50;100783.75;;;-2.49;100.00
55301;BME280;58302;51.446;-2.000;2024-01-15T06:55:21;100774.66;;;-2.55;100.00
55301;BME280;58302;51.446;-2.000;2024-01-15T06:57:48;100776.16;;;-2.52;100.00
55301;BME280;58302;51.446;-2.000;2024-01-15T07:00:15;100778.00;;;-2.61;100.00
55301;BME280;58302;51.446;-2.000;2024-01-15T07:02:41;100776.72;;;-2.73;100.00
55301;BME280;58302;51.446;-2.000;2024-01-15T07:05:09;100777.03;;;-2.76;100.00
55301;BME280;58302;51.446;-2.000;2024-01-15T07:07:37;100766.91;;;-2.81;100.00
55301;BME280;58302;51.446;-2.000;2024-01-15T07:10:04;100763.63;;;-2.91;100.00
55301;BME280;58302;51.446;-2.000;2024-01-15T07:12:31;100765.13;;;-2.97;100.00
55301;BME280;58302;51.446;-2.000;2024-01-15T07:14:57;100750.16;;;-2.98;100.00
55301;BME280;58302;51.446;-2.000;2024-01-15T07:17:22;100745.53;;;-2.96;100.00
55301;BME280;58302;51.446;-2.000;2024-01-15T07:19:49;100752.81;;;-2.89;100.00
55301;BME280;58302;51.446;-2.000;2024-01-15T07:22:15;100752.31;;;-2.93;100.00
55301;BME280;58302;51.446;-2.000;2024-01-15T07:24:43;100748.81;;;-2.85;100.00
55301;BME280;58302;51.446;-2.000;2024-01-15T07:27:09;100745.97;;;-2.84;100.00
55301;BME280;58302;51.446;-2.000;2024-01-15T07:29:42;100740.81;;;-2.77;100.00
55301;BME280;58302;51.446;-2.000;2024-01-15T07:32:10;100741.44;;;-2.75;100.00
55301;BME280;58302;51.446;-2.000;2024-01-15T07:34:41;100736.81;;;-2.73;100.00
55301;BME280;58302;51.446;-2.000;2024-01-15T07:37:24;100723.84;;;-2.76;100.00
55301;BME280;58302;51.446;-2.000;2024-01-15T07:39:52;100730.84;;;-2.83;100.00
55301;BME280;58302;51.446;-2.000;2024-01-15T07:42:18;100726.03;;;-2.80;100.00
55301;BME280;58302;51.446;-2.000;2024-01-15T07:44:45;100726.81;;;-2.71;100.00
55301;BME280;58302;51.446;-2.000;2024-01-15T07:47:12;100724.84;;;-2.69;100.00
55301;BME280;58302;51.446;-2.000;2024-01-15T07:49:40;100712.69;;;-2.72;100.00
55301;BME280;58302;51.446;-2.000;2024-01-15T07:52:06;100716.69;;;-2.76;100.00
55301;BME280;58302;51.446;-2.000;2024-01-15T07:54:37;100713.25;;;-2.84;100.00
55301;BME280;58302;51.446;-2.000;2024-01-15T07:57:03;100720.59;;;-2.95;100.00
55301;BME280;58302;51.446;-2.000;2024-01-15T07:59:29;100722.09;;;-3.08;100.00
55301;BME280;58302;51.446;-2.000;2024-01-15T08:01:55;100721.66;;;-3.28;100.00
55301;BME280;58302;51.446;-2.000;2024-01-15T08:04:22;100725.66;;;-3.49;100.00
55301;BME280;58302;51.446;-2.000;2024-01-15T08:06:48;100718.69;;;-3.74;100.00
55301;BME280;58302;51.446;-2.000;2024-01-15T08:09:14;100724.84;;;-3.90;100.00
55301;BME280;58302;51.446;-2.000;2024-01-15T08:11:47;100728.28;;;-4.06;100.00
55301;BME280;58302;51.446;-2.000;2024-01-15T08:14:15;100731.75;;;-4.21;100.00
55301;BME280;58302;51.446;-2.000;2024-01-15T08:16:41;100735.19;;;-4.29;100.00
55301;BME280;58302;51.446;-2.000;2024-01-15T08:19:08;100736.84;;;-4.36;100.00
55301;BME280;58302;51.446;-2.000;2024-01-15T08:21:42;100728.22;;;-4.38;100.00
55301;BME280;58302;51.446;-2.000;2024-01-15T08:24:08;100732.03;;;-4.33;100.00
55301;BME280;58302;51.446;-2.000;2024-01-15T08:26:35;100749.00;;;-4.17;100.00
55301;BME280;58302;51.446;-2.000;2024-01-15T08:29:08;100744.34;;;-4.07;100.00
55301;BME280;58302;51.446;-2.000;2024-01-15T08:31:46;100743.56;;;-4.00;100.00
55301;BME280;58302;51.446;-2.000;2024-01-15T08:34:14;100743.59;;;-3.83;100.00
55301;BME280;58302;51.446;-2.000;2024-01-15T08:36:40;100738.63;;;-3.46;100.00
55301;BME280;58302;51.446;-2.000;2024-01-15T08:39:07;100732.72;;;-3.08;100.00
55301;BME280;58302;51.446;-2.000;2024-01-15T08:41:35;100725.78;;;-2.62;100.00
55301;BME280;58302;51.446;-2.000;2024-01-15T08:44:01;100720.16;;;-2.05;100.00
55301;BME280;58302;51.446;-2.000;2024-01-15T08:46:28;100713.84;;;-1.58;100.00
55301;BME280;58302;51.446;-2.000;2024-01-15T08:48:54;100706.09;;;-1.15;100.00
55301;BME280;58302;51.446;-2.000;2024-01-15T08:51:20;100707.00;;;-0.78;100.00
55301;BME280;58302;51.446;-2.000;2024-01-15T08:53:46;100701.00;;;-0.36;100.00
55301;BME280;58302;51.446;-2.000;2024-01-15T08:56:14;100689.19;;;-0.06;100.00
55301;BME280;58302;51.446;-2.000;2024-01-15T08:58:40;100680.28;;;0.30;100.00
55301;BME280;58302;51.446;-2.000;2024-01-15T09:01:07;100676.06;;;0.70;100.00
55301;BME280;58302;51.446;-2.000;2024-01-15T09:03:33;100668.31;;;1.10;100.00
55301;BME280;58302;51.446;-2.000;2024-01-15T09:05:59;100668.41;;;1.37;100.00
55301;BME280;58302;51.446;-2.000;2024-01-15T09:08:25;100663.44;;;1.81;100.00
55301;BME280;58302;51.446;-2.000;2024-01-15T09:10:54;100671.31;;;2.16;100.00
55301;BME280;58302;51.446;-2.000;2024-01-15T09:13:22;100674.22;;;2.48;100.00
55301;BME280;58302;51.446;-2.000;2024-01-15T09:15:48;100676.28;;;2.66;100.00
55301;BME280;58302;51.446;-2.000;2024-01-15T09:18:14;100681.66;;;2.59;100.00
55301;BME280;58302;51.446;-2.000;2024-01-15T09:20:40;100693.00;;;2.48;100.00
55301;BME280;58302;51.446;-2.000;2024-01-15T09:23:08;100699.16;;;2.42;100.00
55301;BME280;58302;51.446;-2.000;2024-01-15T09:25:35;100717.50;;;2.18;100.00
55301;BME280;58302;51.446;-2.000;2024-01-15T09:28:02;100745.78;;;2.27;100.00
55301;BME280;58302;51.446;-2.000;2024-01-15T09:30:29;100766.25;;;2.55;100.00
55301;BME280;58302;51.446;-2.000;2024-01-15T09:32:55;100807.75;;;2.85;100.00
55301;BME280;58302;51.446;-2.000;2024-01-15T09:35:23;100869.09;;;3.02;100.00
55301;BME280;58302;51.446;-2.000;2024-01-15T09:37:50;100924.09;;;3.39;100.00
55301;BME280;58302;51.446;-2.000;2024-01-15T09:40:17;100981.75;;;3.83;100.00
55301;BME280;58302;51.446;-2.000;2024-01-15T09:42:47;101031.38;;;4.20;100.00
55301;BME280;58302;51.446;-2.000;2024-01-15T09:45:14;101100.66;;;4.44;100.00
55301;BME280;58302;51.446;-2.000;2024-01-15T09:47:40;101146.22;;;4.33;100.00
55301;BME280;58302;51.446;-2.000;2024-01-15T09:50:08;101151.13;;;3.89;100.00
55301;BME280;58302;51.446;-2.000;2024-01-15T09:52:35;101148.81;;;3.73;100.00
55301;BME280;58302;51.446;-2.000;2024-01-15T09:55:03;101132.31;;;3.76;100.00
55301;BME280;58302;51.446;-2.000;2024-01-15T09:57:32;101109.38;;;3.87;100.00
55301;BME280;58302;51.446;-2.000;2024-01-15T10:00:01;101082.66;;;3.79;100.00
55301;BME280;58302;51.446;-2.000;2024-01-15T10:02:31;101053.91;;;3.66;100.00
55301;BME280;58302;51.446;-2.000;2024-01-15T10:04:58;101037.19;;;3.64;100.00
55301;BME280;58302;51.446;-2.000;2024-01-15T10:07:25;101018.38;;;3.57;100.00
55301;BME280;58302;51.446;-2.000;2024-01-15T10:09:51;101014.25;;;3.75;100.00
55301;BME280;58302;51.446;-2.000;2024-01-15T10:12:17;101012.13;;;3.90;100.00
55301;BME280;58302;51.446;-2.000;2024-01-15T10:14:43;101011.31;;;4.09;100.00
55301;BME280;58302;51.446;-2.000;2024-01-15T10:17:16;101005.94;;;4.03;100.00
55301;BME280;58302;51.446;-2.000;2024-01-15T10:19:44;101010.50;;;3.89;100.00
55301;BME280;58302;51.446;-2.000;2024-01-15T10:22:10;101020.84;;;3.92;100.00
55301;BME280;58302;51.446;-2.000;2024-01-15T10:24:38;101020.66;;;3.80;100.00
55301;BME280;58302;51.446;-2.000;2024-01-15T10:27:10;101034.69;;;3.82;100.00
55301;BME280;58302;51.446;-2.000;2024-01-15T10:29:37;101046.28;;;3.69;100.00
55301;BME280;58302;51.446;-2.000;2024-01-15T10:32:07;101063.22;;;3.70;100.00
55301;BME280;58302;51.446;-2.000;2024-01-15T10:34:37;101073.34;;;3.55;100.00
55301;BME280;58302;51.446;-2.000;2024-01-15T10:37:08;101093.53;;;3.31;100.00
55301;BME280;58302;51.446;-2.000;2024-01-15T10:39:36;101103.34;;;3.65;100.00
55301;BME280;58302;51.446;-2.000;2024-01-15T10:42:03;101113.84;;;3.60;100.00
55301;BME280;58302;51.446;-2.000;2024-01-15T10:44:30;101120.91;;;3.67;100.00
55301;BME280;58302;51.446;-2.000;2024-01-15T10:46:57;101125.44;;;3.60;100.00
55301;BME280;58302;51.446;-2.000;2024-01-15T10:49:24;101137.28;;;3.92;100.00
55301;BME280;58302;51.446;-2.000;2024-01-15T10:51:53;101134.59;;;3.92;100.00
55301;BME280;58302;51.446;-2.000;2024-01-15T10:54:20;101125.94;;;4.04;100.00
55301;BME280;58302;51.446;-2.000;2024-01-15T10:56:50;101130.06;;;3.93;100.00
55301;BME280;58302;51.446;-2.000;2024-01-15T10:59:20;101120.13;;;3.87;100.00
55301;BME280;58302;51.446;-2.000;2024-01-15T11:01:47;101116.56;;;3.60;100.00
55301;BME280;58302;51.446;-2.000;2024-01-15T11:04:14;101117.81;;;3.64;100.00
55301;BME280;58302;51.446;-2.000;2024-01-15T11:06:47;101123.56;;;3.61;100.00
55301;BME280;58302;51.446;-2.000;2024-01-15T11:09:14;101122.72;;;3.47;100.00
55301;BME280;58302;51.446;-2.000;2024-01-15T11:11:43;101132.44;;;3.55;100.00
55301;BME280;58302;51.446;-2.000;2024-01-15T11:14:11;101134.81;;;3.91;100.00
55301;BME280;58302;51.446;-2.000;2024-01-15T11:16:57;101122.19;;;3.85;100.00
55301;BME280;58302;51.446;-2.000;2024-01-15T11:19:26;101110.00;;;4.09;100.00
55301;BME280;58302;51.446;-2.000;2024-01-15T11:22:00;101103.78;;;4.48;100.00
55301;BME280;58302;51.446;-2.000;2024-01-15T11:27:00;101017.34;;;3.91;100.00
55301;BME280;58302;51.446;-2.000;2024-01-15T11:29:34;100982.34;;;4.11;100.00
55301;BME280;58302;51.446;-2.000;2024-01-15T11:34:51;100873.91;;;4.24;100.00
55301;BME280;58302;51.446;-2.000;2024-01-15T11:37:19;100840.94;;;4.73;100.00
55301;BME280;58302;51.446;-2.000;2024-01-15T11:39:45;100778.00;;;4.68;100.00
55301;BME280;58302;51.446;-2.000;2024-01-15T11:42:15;100740.56;;;4.60;100.00
55301;BME280;58302;51.446;-2.000;2024-01-15T11:44:41;100727.19;;;4.53;100.00
55301;BME280;58302;51.446;-2.000;2024-01-15T11:47:09;100711.44;;;4.50;100.00
55301;BME280;58302;51.446;-2.000;2024-01-15T11:50:00;100686.84;;;3.83;100.00
55301;BME280;58302;51.446;-2.000;2024-01-15T11:52:35;100706.91;;;3.36;100.00
55301;BME280;58302;51.446;-2.000;2024-01-15T11:58:12;100768.16;;;3.72;100.00
55301;BME280;58302;51.446;-2.000;2024-01-15T12:00:40;100765.88;;;3.82;100.00
55301;BME280;58302;51.446;-2.000;2024-01-15T12:03:06;100752.88;;;3.79;100.00
55301;BME280;58302;51.446;-2.000;2024-01-15T12:05:32;100719.06;;;3.96;100.00
55301;BME280;58302;51.446;-2.000;2024-01-15T12:07:58;100668.00;;;3.52;100.00
55301;BME280;58302;51.446;-2.000;2024-01-15T12:10:24;100672.84;;;3.23;100.00
55301;BME280;58302;51.446;-2.000;2024-01-15T12:13:00;100710.22;;;3.38;100.00
55301;BME280;58302;51.446;-2.000;2024-01-15T12:15:27;100740.03;;;3.81;100.00
55301;BME280;58302;51.446;-2.000;2024-01-15T12:17:59;100747.84;;;4.28;100.00
55301;BME280;58302;51.446;-2.000;2024-01-15T12:20:27;100706.59;;;4.40;100.00
55301;BME280;58302;51.446;-2.000;2024-01-15T12:22:56;100628.25;;;3.99;100.00
55301;BME280;58302;51.446;-2.000;2024-01-15T12:25:27;100521.88;;;3.53;100.00
55301;BME280;58302;51.446;-2.000;2024-01-15T12:27:53;100463.13;;;3.31;100.00
55301;BME280;58302;51.446;-2.000;2024-01-15T12:30:22;100429.16;;;3.43;100.00
55301;BME280;58302;51.446;-2.000;2024-01-15T12:32:48;100400.09;;;3.59;100.00
55301;BME280;58302;51.446;-2.000;2024-01-15T12:35:14;100359.06;;;4.07;100.00
55301;BME280;58302;51.446;-2.000;2024-01-15T12:37:42;100297.09;;;3.65;100.00
55301;BME280;58302;51.446;-2.000;2024-01-15T12:40:09;100276.78;;;3.51;100.00
55301;BME280;58302;51.446;-2.000;2024-01-15T12:42:37;99931.97;;;3.57;100.00
55301;BME280;58302;51.446;-2.000;2024-01-15T12:45:05;99945.13;;;3.35;100.00
55301;BME280;58302;51.446;-2.000;2024-01-15T12:47:31;99981.22;;;3.39;100.00
55301;BME280;58302;51.446;-2.000;2024-01-15T12:49:58;99985.91;;;3.43;100.00